Time;durP1;ratioP1;P1;durP2;ratioP2;P2;SDS_P1;SDS_P2;PMS_P1;PMS_P2;Temp;Humidity;BMP_temperature;BMP_pressure;BME280_temperature;BME280_humidity;BME280_pressure;Samples;Min_cycle;Max_cycle;Signal;HPM_P1;HPM_P2
2021/12/23 00:00:37;;;;;;;83.78;40.90;;;;;;;-4.65;81.13;101220.23;1684415;85;25551;-76
2021/12/23 00:03:07;;;;;;;90.37;39.77;;;;;;;-4.65;81.27;101218.41;1684706;84;25628;-76
2021/12/23 00:05:34;;;;;;;98.78;42.00;;;;;;;-4.63;81.24;101215.09;1684507;85;25534;-75
2021/12/23 00:08:01;;;;;;;87.82;40.43;;;;;;;-4.63;81.24;101207.17;1662503;85;27293;-75
2021/12/23 00:10:28;;;;;;;91.35;41.23;;;;;;;-4.62;81.20;101204.83;1684265;85;25565;-75
2021/12/23 00:12:54;;;;;;;91.40;41.28;;;;;;;-4.62;81.10;101195.59;1684383;85;25649;-75
2021/12/23 00:18:03;;;;;;;88.42;40.03;;;;;;;-4.62;81.10;101198.23;1684441;85;25439;-75
2021/12/23 00:25:48;;;;;;;90.72;40.40;;;;;;;-4.60;81.22;101190.13;1663833;85;25709;-74
2021/12/23 00:28:15;;;;;;;90.53;40.78;;;;;;;-4.58;81.17;101182.83;1684282;85;25625;-75
2021/12/23 00:30:41;;;;;;;89.40;41.60;;;;;;;-4.59;81.15;101179.38;1684362;85;25656;-76
2021/12/23 00:33:08;;;;;;;92.62;41.35;;;;;;;-4.59;81.12;101178.58;1684424;85;27343;-74
2021/12/23 00:35:35;;;;;;;84.75;39.63;;;;;;;-4.62;81.10;101173.15;1684350;85;25644;-75
2021/12/23 00:38:07;;;;;;;89.77;41.65;;;;;;;-4.59;81.03;101171.97;1684396;85;26291;-75
2021/12/23 00:40:29;;;;;;;94.47;40.98;;;;;;;-4.57;81.18;101169.95;1661594;85;25616;-75
2021/12/23 00:42:56;;;;;;;95.65;41.65;;;;;;;-4.57;81.10;101172.09;1683976;85;25675;-75
2021/12/23 00:45:22;;;;;;;92.37;41.10;;;;;;;-4.57;81.06;101169.95;1716062;83;27935;-76
2021/12/23 00:47:49;;;;;;;88.42;39.73;;;;;;;-4.56;81.16;101167.13;1714355;83;25535;-76
2021/12/23 00:50:15;;;;;;;94.03;42.70;;;;;;;-4.53;81.21;101166.77;1706983;84;25402;-76
2021/12/23 00:52:42;;;;;;;93.65;41.58;;;;;;;-4.53;81.08;101158.84;1707852;84;26329;-75
2021/12/23 00:55:12;;;;;;;88.37;41.90;;;;;;;-4.53;80.95;101157.52;1709365;84;25220;-74
2021/12/23 00:57:40;;;;;;;88.62;43.35;;;;;;;-4.53;81.01;101153.56;1688890;84;27378;-75
2021/12/23 01:00:15;;;;;;;92.03;42.07;;;;;;;-4.54;80.96;101149.27;1708308;84;25379;-75
2021/12/23 01:02:44;;;;;;;98.50;42.13;;;;;;;-4.54;80.98;101142.67;1706209;84;25656;-75
2021/12/23 01:05:13;;;;;;;98.82;42.75;;;;;;;-4.55;81.03;101142.34;1707752;83;25672;-75
2021/12/23 01:07:40;;;;;;;89.25;43.17;;;;;;;-4.54;81.09;101143.98;1708983;83;25476;-74
2021/12/23 01:10:08;;;;;;;90.05;40.70;;;;;;;-4.53;81.13;101139.52;1707800;83;27505;-75
2021/12/23 01:12:43;;;;;;;95.77;42.55;;;;;;;-4.52;81.18;101139.84;1683891;84;25364;-75
2021/12/23 01:15:17;;;;;;;100.45;44.80;;;;;;;-4.53;81.09;101139.52;1681920;85;25436;-74
2021/12/23 01:17:56;;;;;;;93.20;43.20;;;;;;;-4.54;81.07;101138.70;1627554;88;25776;-75
2021/12/23 01:20:31;;;;;;;99.50;46.00;;;;;;;-4.54;81.06;101132.62;1628365;88;25482;-76
2021/12/23 01:23:02;;;;;;;102.32;44.80;;;;;;;-4.54;81.13;101132.62;1629063;88;27339;-75
2021/12/23 01:25:35;;;;;;;106.75;45.58;;;;;;;-4.54;81.27;101116.77;1628481;88;25797;-77
2021/12/23 01:28:03;;;;;;;101.90;46.95;;;;;;;-4.55;81.16;101120.41;1602877;88;25267;-75
2021/12/23 01:30:30;;;;;;;106.50;47.10;;;;;;;-4.55;81.21;101112.48;1628100;88;25746;-75
2021/12/23 01:32:57;;;;;;;103.58;48.20;;;;;;;-4.54;81.34;101118.91;1628360;88;25672;-75
2021/12/23 01:35:26;;;;;;;113.28;46.60;;;;;;;-4.54;81.21;101120.73;1627858;88;27396;-75
2021/12/23 01:37:53;;;;;;;119.82;49.23;;;;;;;-4.54;81.25;101112.30;1627973;88;25811;-75
2021/12/23 01:40:20;;;;;;;106.97;46.98;;;;;;;-4.54;81.26;101112.30;1627148;88;25511;-75
2021/12/23 01:42:47;;;;;;;110.60;46.40;;;;;;;-4.54;81.31;101100.42;1632646;86;25628;-75
2021/12/23 01:45:21;;;;;;;107.50;46.45;;;;;;;-4.53;81.30;101100.75;1661104;86;25450;-75
2021/12/23 01:47:50;;;;;;;108.32;46.55;;;;;;;-4.52;81.38;101102.88;1668470;84;26879;-76
2021/12/23 01:50:24;;;;;;;107.67;45.70;;;;;;;-4.54;81.29;101095.65;1703704;84;35254;-75
2021/12/23 01:52:56;;;;;;;107.17;46.05;;;;;;;-4.54;81.36;101101.73;1704656;84;25675;-75
2021/12/23 01:55:23;;;;;;;102.90;43.60;;;;;;;-4.55;81.32;101095.33;1702517;84;25614;-76
2021/12/23 01:57:51;;;;;;;101.42;45.43;;;;;;;-4.57;81.31;101088.09;1703601;84;25599;-74
2021/12/23 02:00:21;;;;;;;90.30;43.95;;;;;;;-4.55;81.42;101088.72;1703416;84;27338;-74
2021/12/23 02:02:50;;;;;;;106.25;45.08;;;;;;;-4.57;81.40;101075.70;1702303;84;25602;-74
2021/12/23 02:05:17;;;;;;;;;;;;;;;-4.56;81.36;101083.95;1706102;84;25429;-75
2021/12/23 02:07:43;;;;;;;96.42;42.93;;;;;;;-4.55;81.42;101071.05;1703563;84;25805;-74
2021/12/23 02:10:11;;;;;;;89.07;40.25;;;;;;;-4.55;81.48;101075.00;1702614;84;25395;-74
2021/12/23 02:12:39;;;;;;;99.13;42.00;;;;;;;-4.55;81.40;101076.84;1702991;84;27324;-75
2021/12/23 02:15:06;;;;;;;95.22;42.78;;;;;;;-4.55;81.49;101072.36;1703475;84;25434;-75
2021/12/23 02:17:36;;;;;;;95.42;40.98;;;;;;;-4.56;81.44;101062.83;1704237;83;25564;-75
2021/12/23 02:20:16;;;;;;;102.78;42.88;;;;;;;-4.55;81.46;101059.67;1703565;84;25663;-75
2021/12/23 02:22:44;;;;;;;89.40;41.20;;;;;;;-4.56;81.45;101054.91;1703249;84;25534;-75
2021/12/23 02:25:13;;;;;;;90.35;41.25;;;;;;;-4.55;81.51;101051.23;1705266;84;27419;-75
2021/12/23 02:27:41;;;;;;;96.15;41.83;;;;;;;-4.55;81.48;101046.47;1703694;84;25381;-76
2021/12/23 02:30:14;;;;;;;90.85;42.03;;;;;;;-4.56;81.53;101049.63;1703620;84;25626;-75
2021/12/23 02:32:41;;;;;;;92.57;38.73;;;;;;;-4.56;81.41;101043.54;1703698;84;26163;-75
2021/12/23 02:35:12;;;;;;;92.62;39.78;;;;;;;-4.55;81.48;101033.27;1701677;84;25279;-75
2021/12/23 02:37:40;;;;;;;89.32;39.35;;;;;;;-4.55;81.41;101041.19;1703547;84;27302;-75
2021/12/23 02:40:11;;;;;;;86.82;39.55;;;;;;;-4.56;81.44;101030.34;1703516;84;25620;-74
2021/12/23 02:42:38;;;;;;;85.80;38.45;;;;;;;-4.56;81.48;101027.19;1682796;84;25668;-74
2021/12/23 02:45:09;;;;;;;85.30;39.23;;;;;;;-4.56;81.48;101015.30;1703541;83;26161;-74
2021/12/23 02:47:34;;;;;;;;;;;;;;;-4.57;81.46;101019.45;1685770;84;25225;-74
2021/12/23 02:50:00;;;;;;;83.22;36.25;;;;;;;-4.57;81.53;101012.84;1703788;83;27596;-74
2021/12/23 02:52:27;;;;;;;84.37;37.05;;;;;;;-4.59;81.56;101017.00;1702772;83;25404;-77
2021/12/23 02:54:58;;;;;;;89.45;37.93;;;;;;;-4.59;81.49;101010.39;1704030;84;25611;-74
2021/12/23 02:57:27;;;;;;;87.47;38.88;;;;;;;-4.59;81.48;101004.31;1704964;84;25624;-76
2021/12/23 02:59:55;;;;;;;86.55;36.83;;;;;;;-4.60;81.52;100999.51;1704160;84;25609;-75
2021/12/23 03:02:21;;;;;;;78.20;36.90;;;;;;;-4.60;81.52;100992.91;1703837;84;27902;-75
2021/12/23 03:04:48;;;;;;;83.52;37.98;;;;;;;-4.60;81.52;100995.55;1703771;84;25528;-75
2021/12/23 03:07:16;;;;;;;87.42;37.20;;;;;;;-4.60;81.50;100996.06;1703874;83;25479;-75
2021/12/23 03:09:47;;;;;;;79.37;36.17;;;;;;;-4.61;81.47;100995.25;1701507;84;25636;-75
2021/12/23 03:12:14;;;;;;;79.27;35.75;;;;;;;-4.62;81.44;100987.01;1702939;83;25609;-75
2021/12/23 03:14:41;;;;;;;79.62;34.78;;;;;;;-4.60;81.45;100988.95;1703305;84;27512;-76
2021/12/23 03:17:08;;;;;;;75.20;34.23;;;;;;;-4.63;81.42;100984.08;1703323;83;25632;-76
2021/12/23 03:19:34;;;;;;;69.72;34.23;;;;;;;-4.58;81.45;100988.76;1682139;84;25581;-76
2021/12/23 03:22:01;;;;;;;78.60;32.98;;;;;;;-4.58;81.41;100983.48;1704195;84;25748;-76
2021/12/23 03:24:27;;;;;;;77.30;34.27;;;;;;;-4.58;81.34;100977.71;1706309;84;25196;-76
2021/12/23 03:26:54;;;;;;;77.03;33.40;;;;;;;-4.57;81.30;100979.84;1683960;84;26812;-76
2021/12/23 03:29:21;;;;;;;79.87;34.18;;;;;;;-4.58;81.22;100969.80;1703788;84;25678;-76
2021/12/23 03:31:49;;;;;;;75.42;33.63;;;;;;;-4.57;81.19;100971.92;1703692;84;25475;-76
2021/12/23 03:34:15;;;;;;;76.85;33.13;;;;;;;-4.57;81.17;100961.36;1703778;84;25674;-76
2021/12/23 03:36:42;;;;;;;71.60;32.23;;;;;;;-4.56;81.09;100961.17;1703998;84;25406;-77
2021/12/23 03:39:10;;;;;;;68.37;31.55;;;;;;;-4.57;81.04;100959.52;1703052;84;27405;-76
2021/12/23 03:41:36;;;;;;;69.27;31.68;;;;;;;-4.56;80.98;100955.89;1703828;84;25666;-76
2021/12/23 03:44:04;;;;;;;74.30;31.57;;;;;;;-4.56;80.97;100948.48;1703934;84;25637;-75
2021/12/23 03:46:30;;;;;;;64.42;29.95;;;;;;;-4.54;80.83;100946.45;1703722;84;25645;-76
2021/12/23 03:48:56;;;;;;;62.55;29.20;;;;;;;-4.54;80.75;100945.14;1706092;83;25455;-75
2021/12/23 03:51:23;;;;;;;68.40;30.02;;;;;;;-4.55;80.69;100950.90;1703132;84;27844;-75
2021/12/23 03:53:50;;;;;;;63.50;29.48;;;;;;;-4.55;80.60;100952.22;1731319;83;25347;-75
2021/12/23 03:56:18;;;;;;;66.25;30.05;;;;;;;-4.55;80.63;100942.98;1724968;83;25528;-75
2021/12/23 03:58:45;;;;;;;65.62;29.63;;;;;;;-4.55;80.58;100940.34;1719097;83;26317;-75
2021/12/23 04:01:13;;;;;;;59.27;27.48;;;;;;;-4.55;80.47;100935.05;1719250;83;25383;-75
2021/12/23 04:03:39;;;;;;;58.45;28.27;;;;;;;-4.54;80.43;100930.61;1719164;83;27040;-76
2021/12/23 04:06:06;;;;;;;60.23;27.52;;;;;;;-4.56;80.35;100930.00;1685917;84;25607;-76
2021/12/23 04:08:32;;;;;;;58.58;27.07;;;;;;;-4.56;80.25;100920.75;1719158;83;25513;-76
2021/12/23 04:11:00;;;;;;;58.60;25.77;;;;;;;-4.57;80.27;100919.91;1696293;83;26306;-76
2021/12/23 04:13:27;;;;;;;55.55;26.02;;;;;;;-4.57;80.15;100914.64;1719286;83;25436;-76
2021/12/23 04:15:53;;;;;;;55.50;26.20;;;;;;;-4.58;80.15;100916.14;1719187;83;27389;-76
2021/12/23 04:18:20;;;;;;;60.40;26.97;;;;;;;-4.59;80.09;100910.06;1719103;83;25524;-76
2021/12/23 04:20:53;;;;;;;54.73;25.57;;;;;;;-4.60;80.05;100901.81;1719182;83;25379;-76
2021/12/23 04:23:15;;;;;;;55.83;25.85;;;;;;;-4.61;79.98;100896.76;1705961;83;26531;-77
2021/12/23 04:25:41;;;;;;;59.40;26.12;;;;;;;-4.61;79.92;100898.08;1720729;83;25228;-78
2021/12/23 04:28:08;;;;;;;50.73;24.23;;;;;;;-4.65;79.85;100894.98;1696862;83;27343;-78
2021/12/23 04:30:34;;;;;;;57.88;26.30;;;;;;;-4.64;79.81;100894.50;1719138;83;25612;-78
2021/12/23 04:33:01;;;;;;;63.20;25.72;;;;;;;-4.67;79.86;100889.09;1719225;83;25528;-77
2021/12/23 04:35:28;;;;;;;60.45;26.52;;;;;;;-4.67;79.88;100879.04;1719216;83;26193;-77
2021/12/23 04:37:54;;;;;;;54.15;23.83;;;;;;;-4.69;79.81;100876.08;1719154;83;25403;-77
2021/12/23 04:40:21;;;;;;;59.90;25.48;;;;;;;-4.69;79.84;100878.72;1706394;84;27305;-77
2021/12/23 04:42:48;;;;;;;54.55;26.17;;;;;;;-4.70;79.79;100865.70;1719074;83;25443;-77
2021/12/23 04:45:15;;;;;;;62.98;26.40;;;;;;;-4.70;79.76;100867.86;1719158;83;25563;-77
2021/12/23 04:47:42;;;;;;;55.55;25.72;;;;;;;-4.71;79.77;100861.45;1719107;83;25590;-77
2021/12/23 04:50:13;;;;;;;56.92;26.57;;;;;;;-4.73;79.76;100857.69;1707600;83;25540;-77
2021/12/23 04:52:43;;;;;;;49.77;23.92;;;;;;;-4.74;79.71;100847.32;1709807;83;27893;-77
2021/12/23 04:55:11;;;;;;;59.40;25.68;;;;;;;-4.74;79.74;100846.00;1710364;83;25228;-76
2021/12/23 04:57:38;;;;;;;58.35;25.43;;;;;;;-4.75;79.72;100837.76;1719121;83;25553;-76
2021/12/23 05:00:10;;;;;;;69.45;27.50;;;;;;;-4.76;79.72;100836.14;1719095;83;25773;-76
2021/12/23 05:02:36;;;;;;;56.42;24.87;;;;;;;-4.77;79.74;100835.31;1717617;82;25446;-77
2021/12/23 05:05:05;;;;;;;60.08;26.73;;;;;;;-4.77;79.70;100828.71;1719099;83;27877;-76
2021/12/23 05:07:32;;;;;;;61.77;27.22;;;;;;;-4.77;79.70;100830.55;1668694;84;25484;-76
2021/12/23 05:09:58;;;;;;;60.35;28.02;;;;;;;-4.77;79.67;100826.07;1671027;85;25654;-77
2021/12/23 05:12:25;;;;;;;59.48;26.75;;;;;;;-4.78;79.60;100815.73;1666427;84;25846;-76
2021/12/23 05:14:51;;;;;;;57.17;26.82;;;;;;;-4.81;79.59;100814.28;1668602;84;25586;-76
2021/12/23 05:17:17;;;;;;;53.42;25.77;;;;;;;-4.82;79.49;100812.64;1669303;85;27448;-76
2021/12/23 05:19:44;;;;;;;58.00;26.42;;;;;;;-4.82;79.44;100811.33;1670595;84;25537;-76
2021/12/23 05:22:12;;;;;;;59.98;26.65;;;;;;;-4.86;79.42;100810.61;1668985;85;25505;-76
2021/12/23 05:24:39;;;;;;;56.33;27.37;;;;;;;-4.88;79.41;100807.64;1672175;84;26415;-77
2021/12/23 05:27:05;;;;;;;56.75;25.85;;;;;;;-4.86;79.46;100806.13;1669977;85;25586;-76
2021/12/23 05:29:32;;;;;;;61.80;27.55;;;;;;;-4.88;79.33;100801.05;1692015;84;27903;-76
2021/12/23 05:31:58;;;;;;;57.70;26.57;;;;;;;-4.90;79.28;100806.23;1670279;84;25566;-77
2021/12/23 05:34:25;;;;;;;61.42;26.87;;;;;;;-4.94;79.20;100797.89;1668735;85;25515;-76
2021/12/23 05:36:51;;;;;;;61.37;26.10;;;;;;;-4.98;79.24;100784.75;1679831;85;26146;-76
2021/12/23 05:39:18;;;;;;;68.28;27.55;;;;;;;-4.99;79.33;100790.22;1701902;83;25596;-76
2021/12/23 05:41:44;;;;;;;60.92;27.07;;;;;;;-5.00;79.43;100789.92;1706365;84;27409;-77
2021/12/23 05:44:10;;;;;;;53.33;24.87;;;;;;;-5.02;79.39;100785.33;1708599;83;25564;-77
2021/12/23 05:46:37;;;;;;;61.77;26.27;;;;;;;-5.02;79.45;100782.69;1719138;83;25607;-77
2021/12/23 05:49:04;;;;;;;60.15;27.02;;;;;;;-5.02;79.47;100777.41;1717217;83;26393;-77
2021/12/23 05:51:30;;;;;;;58.13;26.68;;;;;;;-5.04;79.42;100773.64;1703684;84;25623;-76
2021/12/23 05:53:59;;;;;;;59.88;27.20;;;;;;;-5.04;79.43;100769.69;1704035;84;27439;-76
2021/12/23 05:56:25;;;;;;;57.20;26.17;;;;;;;-5.04;79.38;100768.37;1703002;84;25851;-77
2021/12/23 05:58:52;;;;;;;57.10;26.82;;;;;;;-5.04;79.42;100763.61;1704186;84;25138;-76
2021/12/23 06:01:19;;;;;;;56.90;26.27;;;;;;;-5.03;79.46;100766.56;1703790;84;25661;-77
2021/12/23 06:03:46;;;;;;;56.42;26.30;;;;;;;-5.02;79.47;100764.22;1703750;84;25614;-77
2021/12/23 06:06:15;;;;;;;56.33;25.82;;;;;;;-5.03;79.38;100763.41;1703590;84;27162;-76
2021/12/23 06:08:42;;;;;;;52.70;24.43;;;;;;;-5.02;79.44;100764.22;1703709;84;25385;-77
2021/12/23 06:11:09;;;;;;;60.28;25.82;;;;;;;-4.99;79.47;100763.84;1703357;84;25572;-76
2021/12/23 06:13:36;;;;;;;57.23;25.45;;;;;;;-4.96;79.44;100766.09;1703254;84;26232;-77
2021/12/23 06:16:03;;;;;;;57.88;25.20;;;;;;;-4.95;79.31;100769.05;1683504;84;25642;-77
2021/12/23 06:18:30;;;;;;;60.50;25.77;;;;;;;-4.96;79.18;100767.41;1683001;84;27353;-77
2021/12/23 06:20:57;;;;;;;54.25;24.75;;;;;;;-4.96;79.10;100760.30;1703080;84;25544;-77
2021/12/23 06:23:26;;;;;;;51.75;25.00;;;;;;;-4.96;79.05;100766.89;1702298;84;25515;-77
2021/12/23 06:25:53;;;;;;;52.27;24.67;;;;;;;-4.96;79.03;100763.45;1705279;84;25624;-77
2021/12/23 06:28:20;;;;;;;50.88;24.40;;;;;;;-4.97;78.91;100757.37;1703567;84;25579;-77
2021/12/23 06:30:46;;;;;;;50.65;22.87;;;;;;;-4.98;78.90;100751.77;1702188;84;27317;-77
2021/12/23 06:33:13;;;;;;;53.28;24.55;;;;;;;-4.97;78.93;100748.62;1682889;84;25699;-77
2021/12/23 06:35:40;;;;;;;51.98;23.55;;;;;;;-4.99;78.96;100744.05;1703060;84;25371;-77
2021/12/23 06:38:10;;;;;;;54.60;24.55;;;;;;;-4.98;78.99;100747.01;1702997;84;26166;-76
2021/12/23 06:40:38;;;;;;;54.00;24.32;;;;;;;-4.98;79.05;100751.77;1683479;84;25677;-76
2021/12/23 06:43:06;;;;;;;58.13;26.07;;;;;;;-4.95;79.07;100749.27;1703188;84;27580;-76
2021/12/23 06:45:32;;;;;;;53.63;25.12;;;;;;;-4.95;78.99;100740.83;1703301;84;25524;-76
2021/12/23 06:47:59;;;;;;;54.88;23.75;;;;;;;-4.94;78.98;100738.52;1702783;84;25546;-77
2021/12/23 06:50:25;;;;;;;55.70;24.25;;;;;;;-4.92;79.27;100745.72;1710258;82;25606;-76
2021/12/23 06:52:52;;;;;;;52.35;23.83;;;;;;;-4.89;79.10;100753.73;1718157;83;25410;-76
2021/12/23 06:55:20;;;;;;;55.95;24.92;;;;;;;-4.87;79.02;100746.44;1718937;83;27305;-77
2021/12/23 06:57:53;;;;;;;58.85;24.32;;;;;;;-4.88;78.96;100739.55;1716717;83;25457;-77
2021/12/23 07:00:18;;;;;;;53.35;24.35;;;;;;;-4.86;78.94;100749.91;1716222;83;32729;-77
2021/12/23 07:02:45;;;;;;;49.33;22.25;;;;;;;-4.85;78.92;100738.33;1716957;83;25641;-77
2021/12/23 07:05:15;;;;;;;56.00;24.95;;;;;;;-4.85;78.86;100735.20;1694071;83;25546;-77
2021/12/23 07:07:55;;;;;;;54.25;24.50;;;;;;;-4.81;78.89;100733.78;1716811;83;27359;-77
2021/12/23 07:10:14;;;;;;;;;;;;;;;-4.79;78.70;100733.59;1715827;82;25559;-77
2021/12/23 07:12:39;;;;;;;55.43;24.20;;;;;;;-4.80;78.65;100722.23;1716726;83;25540;-77
2021/12/23 07:15:07;;;;;;;50.83;24.00;;;;;;;-4.79;78.58;100725.16;1716941;83;25636;-77
2021/12/23 07:17:35;;;;;;;51.42;23.18;;;;;;;-4.78;78.60;100723.36;1689869;84;25479;-77
2021/12/23 07:20:03;;;;;;;52.40;24.52;;;;;;;-4.77;78.55;100727.09;1690199;84;27508;-77
2021/12/23 07:22:35;;;;;;;55.52;24.80;;;;;;;-4.73;78.64;100726.22;1684650;84;25752;-76
2021/12/23 07:25:03;;;;;;;55.73;24.67;;;;;;;-4.73;78.54;100718.30;1662788;85;25223;-76
2021/12/23 07:27:30;;;;;;;47.93;24.05;;;;;;;-4.72;78.53;100719.39;1683712;85;26299;-78
2021/12/23 07:29:56;;;;;;;55.05;25.05;;;;;;;-4.71;78.27;100716.27;1683559;85;25697;-78
2021/12/23 07:32:23;;;;;;;48.20;24.32;;;;;;;-4.71;78.22;100707.03;1651087;86;27366;-78
2021/12/23 07:34:49;;;;;;;53.58;24.30;;;;;;;-4.71;78.21;100701.23;1683754;85;25628;-78
2021/12/23 07:37:16;;;;;;;49.98;23.30;;;;;;;-4.68;78.25;100697.41;1682589;85;25595;-78
2021/12/23 07:39:43;;;;;;;49.25;23.65;;;;;;;-4.67;78.35;100692.41;1628228;86;25679;-77
2021/12/23 07:42:14;;;;;;;55.50;26.35;;;;;;;-4.63;78.25;100700.75;1683233;85;25538;-78
2021/12/23 07:44:38;;;;;;;48.23;24.35;;;;;;;-4.62;78.13;100692.62;1683732;85;27351;-77
2021/12/23 07:47:05;;;;;;;61.60;24.43;;;;;;;-4.62;78.23;100684.71;1686999;84;25441;-77
2021/12/23 07:49:32;;;;;;;48.28;22.32;;;;;;;-4.60;78.02;100684.00;1709604;83;25429;-77
2021/12/23 07:52:00;;;;;;;50.65;24.23;;;;;;;-4.58;78.04;100679.36;1704187;84;25643;-75
2021/12/23 07:54:30;;;;;;;56.70;24.80;;;;;;;-4.56;77.99;100674.69;1702890;84;25234;-72
2021/12/23 07:56:57;;;;;;;52.05;22.45;;;;;;;-4.54;77.82;100671.84;1692337;84;27348;-74
2021/12/23 07:59:23;;;;;;;50.30;24.32;;;;;;;-4.53;77.85;100672.14;1703840;84;25592;-75
2021/12/23 08:01:49;;;;;;;52.73;24.20;;;;;;;-4.52;77.80;100665.85;1703893;84;25619;-74
2021/12/23 08:04:16;;;;;;;53.87;23.47;;;;;;;-4.46;77.84;100666.88;1702345;84;25613;-76
2021/12/23 08:06:42;;;;;;;52.83;24.82;;;;;;;-4.46;77.39;100661.59;1703861;84;25445;-75
2021/12/23 08:09:09;;;;;;;51.23;23.80;;;;;;;-4.45;77.28;100660.59;1704000;84;28121;-75
2021/12/23 08:11:35;;;;;;;53.05;24.47;;;;;;;-4.46;77.33;100658.47;1681788;84;25728;-76
2021/12/23 08:14:01;;;;;;;49.42;23.65;;;;;;;-4.43;77.20;100650.11;1682568;85;25601;-75
2021/12/23 08:16:28;;;;;;;56.30;26.05;;;;;;;-4.42;77.36;100648.31;1650680;86;26088;-75
2021/12/23 08:18:54;;;;;;;52.17;23.70;;;;;;;-4.37;77.30;100653.28;1651574;86;25535;-76
2021/12/23 08:21:22;;;;;;;52.45;24.77;;;;;;;-4.34;77.27;100648.13;1660005;85;28139;-75
2021/12/23 08:23:53;;;;;;;51.45;25.92;;;;;;;-4.28;77.37;100647.81;1651360;86;25346;-76
2021/12/23 08:26:27;;;;;;;55.65;24.60;;;;;;;-4.25;77.18;100642.13;1594337;86;25634;-76
2021/12/23 08:28:49;;;;;;;55.07;24.23;;;;;;;-4.23;77.02;100643.54;1649801;86;25844;-75
2021/12/23 08:31:15;;;;;;;48.35;22.32;;;;;;;-4.18;76.96;100644.27;1650913;86;25568;-74
2021/12/23 08:33:41;;;;;;;50.05;24.35;;;;;;;-4.15;77.11;100641.22;1650901;86;27855;-74
2021/12/23 08:36:08;;;;;;;55.90;24.40;;;;;;;-4.12;76.95;100635.50;1650654;86;25466;-76
2021/12/23 08:38:34;;;;;;;56.50;25.40;;;;;;;-4.07;76.83;100622.53;1660752;85;25388;-76
2021/12/23 08:41:00;;;;;;;54.67;23.18;;;;;;;-4.03;76.72;100623.73;1669771;85;25688;-72
2021/12/23 08:43:27;;;;;;;54.55;24.90;;;;;;;-3.98;77.02;100621.80;1652522;86;25407;-74
2021/12/23 08:45:53;;;;;;;53.68;24.23;;;;;;;-3.89;76.96;100621.89;1669590;86;27797;-75
2021/12/23 08:48:20;;;;;;;52.67;25.27;;;;;;;-3.85;76.07;100619.64;1669582;86;25385;-75
2021/12/23 08:50:46;;;;;;;57.03;24.72;;;;;;;-3.84;76.07;100608.06;1651802;86;25539;-75
2021/12/23 08:53:13;;;;;;;56.15;24.43;;;;;;;-3.83;76.08;100610.50;1670453;85;25609;-76
2021/12/23 08:55:39;;;;;;;52.17;23.98;;;;;;;-3.81;76.17;100605.02;1670840;86;25205;-75
2021/12/23 08:58:07;;;;;;;53.70;25.27;;;;;;;-3.76;76.09;100602.56;1688276;84;27331;-75
2021/12/23 09:00:36;;;;;;;55.50;25.95;;;;;;;-3.74;75.61;100605.00;1683591;84;25775;-75
2021/12/23 09:03:08;;;;;;;56.37;26.50;;;;;;;-3.77;75.54;100597.77;1703942;84;25379;-76
2021/12/23 09:05:39;;;;;;;51.28;24.52;;;;;;;-3.75;75.77;100601.53;1703702;84;25673;-76
2021/12/23 09:08:07;;;;;;;51.23;24.50;;;;;;;-3.76;75.64;100596.76;1703703;83;25677;-76
2021/12/23 09:10:34;;;;;;;51.60;25.37;;;;;;;-3.74;75.48;100597.07;1678591;85;27314;-76
2021/12/23 09:13:03;;;;;;;50.80;24.77;;;;;;;-3.72;75.42;100591.06;1679431;85;25800;-76
2021/12/23 09:15:30;;;;;;;51.28;25.25;;;;;;;-3.71;75.56;100578.12;1679735;85;25567;-75
2021/12/23 09:17:57;;;;;;;54.53;25.08;;;;;;;-3.71;75.37;100565.74;1679509;85;25644;-76
2021/12/23 09:20:24;;;;;;;58.65;26.00;;;;;;;-3.65;75.49;100570.18;1656664;85;25598;-75
2021/12/23 09:22:55;;;;;;;51.42;24.92;;;;;;;-3.58;75.99;100568.31;1680359;85;27394;-75
2021/12/23 09:25:29;;;;;;;58.48;26.50;;;;;;;-3.52;75.48;100568.02;1654526;85;25567;-73
2021/12/23 09:33:05;;;;;;;58.35;25.10;;;;;;;-3.42;75.06;100557.80;1679552;85;25430;-74
2021/12/23 09:35:33;;;;;;;53.05;25.12;;;;;;;-3.36;74.97;100552.17;1695533;84;27327;-75
2021/12/23 09:38:01;;;;;;;50.65;24.77;;;;;;;-3.30;74.91;100542.58;1703534;84;25553;-74
2021/12/23 09:40:29;;;;;;;52.88;24.92;;;;;;;-3.27;74.54;100539.02;1703665;84;25570;-75
2021/12/23 09:43:09;;;;;;;48.33;25.05;;;;;;;-3.27;74.31;100535.05;1703587;84;25730;-74
2021/12/23 09:45:39;;;;;;;51.68;24.87;;;;;;;-3.24;74.24;100528.52;1703810;84;25448;-73
2021/12/23 09:48:09;;;;;;;53.08;25.35;;;;;;;-3.19;74.12;100528.69;1703147;84;27976;-75
2021/12/23 09:50:40;;;;;;;54.05;25.60;;;;;;;-3.17;73.75;100533.77;1703201;83;25753;-75
2021/12/23 09:53:07;;;;;;;55.92;26.30;;;;;;;-3.16;73.78;100521.66;1704785;84;25620;-76
2021/12/23 09:55:37;;;;;;;57.35;25.72;;;;;;;-3.12;73.54;100523.36;1684820;84;25582;-76
2021/12/23 09:58:06;;;;;;;54.45;24.82;;;;;;;-3.08;73.76;100518.77;1704674;84;25698;-76
2021/12/23 10:00:38;;;;;;;51.02;24.72;;;;;;;-3.03;73.85;100518.94;1703850;84;28047;-74
2021/12/23 10:03:07;;;;;;;52.05;24.72;;;;;;;-2.95;73.52;100511.23;1703854;84;25652;-74
2021/12/23 10:05:36;;;;;;;47.40;25.45;;;;;;;-2.91;72.81;100519.55;1704106;84;25533;-75
2021/12/23 10:08:05;;;;;;;49.93;25.27;;;;;;;-2.91;73.28;100502.35;1703817;84;25632;-75
2021/12/23 10:10:48;;;;;;;50.10;23.55;;;;;;;-2.84;73.77;100497.84;1684863;84;25601;-74
2021/12/23 10:28:58;;;;;;;53.98;25.23;;;;;;;-2.70;72.66;100475.52;1663814;84;28129;-75
2021/12/23 10:38:25;;;;;;;54.88;24.82;;;;;;;-2.59;71.49;100457.30;1693241;84;25488;-73
2021/12/23 10:40:56;;;;;;;56.65;26.23;;;;;;;-2.59;71.89;100454.13;1693223;84;27533;-73
2021/12/23 10:43:34;;;;;;;51.42;25.27;;;;;;;-2.56;71.08;100448.39;1693073;84;25415;-74
2021/12/23 10:46:12;;;;;;;51.98;25.23;;;;;;;-2.59;71.19;100436.91;1692982;84;25449;-74
2021/12/23 10:52:14;;;;;;;53.02;24.82;;;;;;;-2.48;71.03;100415.53;1674420;84;25479;-74
2021/12/23 11:00:35;;;;;;;48.98;24.23;;;;;;;-2.15;71.37;100395.80;1681062;84;25607;-74
2021/12/23 11:06:16;;;;;;;53.68;24.82;;;;;;;-1.72;71.52;100385.56;1696943;84;25438;-73
2021/12/23 11:08:56;;;;;;;54.77;24.82;;;;;;;-1.39;70.97;100380.31;1672819;84;26006;-74
2021/12/23 11:12:07;;;;;;;49.65;25.05;;;;;;;-1.33;68.02;100368.77;1696448;82;25513;-73
2021/12/23 11:42:00;;;;;;;51.53;25.30;;;;;;;-1.36;67.36;100303.71;1701230;83;25446;-75
2021/12/23 11:44:20;;;;;;;52.75;25.57;;;;;;;-1.43;68.09;100284.94;1722750;83;25687;-76
2021/12/23 11:46:52;;;;;;;52.62;26.05;;;;;;;-1.43;67.94;100284.94;1724150;83;25648;-75
2021/12/23 11:49:16;;;;;;;55.45;25.60;;;;;;;-1.49;68.01;100273.41;1700572;83;27261;-74
2021/12/23 11:54:35;;;;;;;47.58;23.67;;;;;;;-1.53;68.17;100267.76;1710177;83;25470;-72
2021/12/23 11:57:10;;;;;;;50.20;24.77;;;;;;;-1.49;68.64;100265.45;1697871;84;25547;-74
2021/12/23 11:59:40;;;;;;;50.43;24.37;;;;;;;-1.49;68.45;100249.53;1697768;84;25621;-72
2021/12/23 12:02:18;;;;;;;49.13;25.25;;;;;;;-1.49;68.43;100242.90;1698122;84;27980;-72
2021/12/23 12:04:47;;;;;;;52.93;25.23;;;;;;;-1.50;68.27;100229.33;1682696;83;25763;-76
2021/12/23 12:07:19;;;;;;;49.67;25.48;;;;;;;-1.50;68.30;100220.05;1712504;83;25431;-80
2021/12/23 12:10:09;;;;;;;53.38;24.02;;;;;;;-1.52;68.29;100220.27;1713557;83;25625;-78
2021/12/23 12:12:56;;;;;;;45.30;23.77;;;;;;;-1.59;67.37;100211.62;1713384;83;25403;-75
2021/12/23 12:15:48;;;;;;;48.50;24.20;;;;;;;-1.65;67.77;100204.61;1712849;83;27417;-76
2021/12/23 12:18:22;;;;;;;51.58;24.60;;;;;;;-1.67;68.15;100189.95;1713019;83;25561;-77
2021/12/23 12:20:55;;;;;;;51.83;24.72;;;;;;;-1.67;68.69;100186.77;1713055;83;25487;-74
2021/12/23 12:23:36;;;;;;;49.38;23.95;;;;;;;-1.67;68.50;100183.31;1713517;83;25861;-76
2021/12/23 12:26:09;;;;;;;46.75;23.87;;;;;;;-1.64;68.56;100177.03;1678115;84;25781;-74
2021/12/23 12:28:46;;;;;;;51.75;25.52;;;;;;;-1.63;68.62;100164.06;1663497;85;27347;-76
2021/12/23 12:31:28;;;;;;;46.63;24.05;;;;;;;-1.63;68.40;100167.25;1672819;85;26486;-73
2021/12/23 12:34:08;;;;;;;48.15;22.52;;;;;;;-1.67;68.30;100159.45;1675949;85;25495;-70